sensor_id;sensor_type;location;lat;lon;timestamp;P1;durP1;ratioP1;P2;durP2;ratioP2
60030;SDS011;45901;47.600;9.890;2022-07-25T00:00:22;11.17;;;8.80;;
60030;SDS011;45901;47.600;9.890;2022-07-25T00:02:49;13.47;;;9.53;;
60030;SDS011;45901;47.600;9.890;2022-07-25T00:05:17;10.40;;;9.23;;
60030;SDS011;45901;47.600;9.890;2022-07-25T00:08:00;9.43;;;8.53;;
60030;SDS011;45901;47.600;9.890;2022-07-25T00:10:28;11.90;;;9.10;;
60030;SDS011;45901;47.600;9.890;2022-07-25T00:12:58;12.27;;;9.10;;
60030;SDS011;45901;47.600;9.890;2022-07-25T00:15:26;12.93;;;10.03;;
60030;SDS011;45901;47.600;9.890;2022-07-25T00:17:53;10.27;;;8.80;;
60030;SDS011;45901;47.600;9.890;2022-07-25T00:20:21;10.00;;;9.00;;
60030;SDS011;45901;47.600;9.890;2022-07-25T00:22:52;11.93;;;8.60;;
60030;SDS011;45901;47.600;9.890;2022-07-25T00:25:19;11.57;;;9.13;;
60030;SDS011;45901;47.600;9.890;2022-07-25T00:27:49;11.67;;;9.07;;
60030;SDS011;45901;47.600;9.890;2022-07-25T00:30:19;12.10;;;9.30;;
60030;SDS011;45901;47.600;9.890;2022-07-25T00:32:53;10.10;;;8.70;;
60030;SDS011;45901;47.600;9.890;2022-07-25T00:35:21;11.30;;;9.00;;
60030;SDS011;45901;47.600;9.890;2022-07-25T00:37:52;12.50;;;9.87;;
60030;SDS011;45901;47.600;9.890;2022-07-25T00:40:24;11.00;;;8.40;;
60030;SDS011;45901;47.600;9.890;2022-07-25T00:42:52;10.07;;;8.90;;
60030;SDS011;45901;47.600;9.890;2022-07-25T00:45:24;12.03;;;9.13;;
60030;SDS011;45901;47.600;9.890;2022-07-25T00:47:54;11.50;;;9.27;;
60030;SDS011;45901;47.600;9.890;2022-07-25T00:50:21;10.27;;;9.00;;
60030;SDS011;45901;47.600;9.890;2022-07-25T00:52:58;12.60;;;9.47;;
60030;SDS011;45901;47.600;9.890;2022-07-25T00:55:35;9.40;;;8.50;;
60030;SDS011;45901;47.600;9.890;2022-07-25T00:58:04;13.40;;;9.07;;
60030;SDS011;45901;47.600;9.890;2022-07-25T01:00:31;10.77;;;8.97;;
60030;SDS011;45901;47.600;9.890;2022-07-25T01:03:03;10.87;;;8.70;;
60030;SDS011;45901;47.600;9.890;2022-07-25T01:05:36;12.10;;;9.60;;
60030;SDS011;45901;47.600;9.890;2022-07-25T01:08:08;12.60;;;10.47;;
60030;SDS011;45901;47.600;9.890;2022-07-25T01:10:44;10.97;;;9.10;;
60030;SDS011;45901;47.600;9.890;2022-07-25T01:13:14;11.30;;;9.13;;
60030;SDS011;45901;47.600;9.890;2022-07-25T01:15:44;12.53;;;10.00;;
60030;SDS011;45901;47.600;9.890;2022-07-25T01:18:13;10.83;;;9.73;;
60030;SDS011;45901;47.600;9.890;2022-07-25T01:20:43;11.07;;;9.47;;
60030;SDS011;45901;47.600;9.890;2022-07-25T01:23:15;10.87;;;9.77;;
60030;SDS011;45901;47.600;9.890;2022-07-25T01:25:43;10.90;;;9.77;;
60030;SDS011;45901;47.600;9.890;2022-07-25T01:28:14;11.83;;;9.70;;
60030;SDS011;45901;47.600;9.890;2022-07-25T01:30:49;10.40;;;9.30;;
60030;SDS011;45901;47.600;9.890;2022-07-25T01:33:17;11.23;;;9.87;;
60030;SDS011;45901;47.600;9.890;2022-07-25T01:35:52;11.53;;;9.60;;
60030;SDS011;45901;47.600;9.890;2022-07-25T01:38:20;10.97;;;9.80;;
60030;SDS011;45901;47.600;9.890;2022-07-25T01:40:47;12.47;;;11.17;;
60030;SDS011;45901;47.600;9.890;2022-07-25T01:43:14;13.10;;;10.10;;
60030;SDS011;45901;47.600;9.890;2022-07-25T01:45:43;11.07;;;9.97;;
60030;SDS011;45901;47.600;9.890;2022-07-25T01:48:16;12.90;;;10.47;;
60030;SDS011;45901;47.600;9.890;2022-07-25T01:50:44;11.30;;;10.20;;
60030;SDS011;45901;47.600;9.890;2022-07-25T01:53:23;12.60;;;10.03;;
60030;SDS011;45901;47.600;9.890;2022-07-25T01:55:52;11.40;;;9.83;;
60030;SDS011;45901;47.600;9.890;2022-07-25T01:58:19;11.20;;;10.07;;
60030;SDS011;45901;47.600;9.890;2022-07-25T02:00:48;11.30;;;9.67;;
60030;SDS011;45901;47.600;9.890;2022-07-25T02:03:19;12.07;;;10.10;;
60030;SDS011;45901;47.600;9.890;2022-07-25T02:05:59;11.57;;;10.03;;
60030;SDS011;45901;47.600;9.890;2022-07-25T02:08:37;11.03;;;9.83;;
60030;SDS011;45901;47.600;9.890;2022-07-25T02:11:15;12.97;;;9.70;;
60030;SDS011;45901;47.600;9.890;2022-07-25T02:13:42;13.50;;;10.00;;
60030;SDS011;45901;47.600;9.890;2022-07-25T02:16:10;10.93;;;9.50;;
60030;SDS011;45901;47.600;9.890;2022-07-25T02:18:47;11.30;;;10.07;;
60030;SDS011;45901;47.600;9.890;2022-07-25T02:21:14;16.97;;;9.80;;
60030;SDS011;45901;47.600;9.890;2022-07-25T02:23:46;12.70;;;10.53;;
60030;SDS011;45901;47.600;9.890;2022-07-25T02:26:16;11.37;;;9.67;;
60030;SDS011;45901;47.600;9.890;2022-07-25T02:28:45;11.50;;;10.23;;
60030;SDS011;45901;47.600;9.890;2022-07-25T02:31:16;12.13;;;9.87;;
60030;SDS011;45901;47.600;9.890;2022-07-25T02:33:50;12.50;;;10.73;;
60030;SDS011;45901;47.600;9.890;2022-07-25T02:36:24;10.37;;;9.30;;
60030;SDS011;45901;47.600;9.890;2022-07-25T02:39:00;13.60;;;9.27;;
60030;SDS011;45901;47.600;9.890;2022-07-25T02:41:58;10.73;;;9.60;;
60030;SDS011;45901;47.600;9.890;2022-07-25T02:44:25;12.83;;;9.83;;
60030;SDS011;45901;47.600;9.890;2022-07-25T02:46:52;12.17;;;9.93;;
60030;SDS011;45901;47.600;9.890;2022-07-25T02:49:19;13.87;;;10.13;;
60030;SDS011;45901;47.600;9.890;2022-07-25T02:51:47;12.27;;;10.30;;
60030;SDS011;45901;47.600;9.890;2022-07-25T02:54:20;11.20;;;10.00;;
60030;SDS011;45901;47.600;9.890;2022-07-25T02:56:51;11.10;;;9.67;;
60030;SDS011;45901;47.600;9.890;2022-07-25T02:59:20;12.03;;;10.13;;
60030;SDS011;45901;47.600;9.890;2022-07-25T03:01:59;13.50;;;10.17;;
60030;SDS011;45901;47.600;9.890;2022-07-25T03:04:33;14.13;;;10.57;;
60030;SDS011;45901;47.600;9.890;2022-07-25T03:07:00;13.50;;;11.03;;
60030;SDS011;45901;47.600;9.890;2022-07-25T03:09:30;11.97;;;10.73;;
60030;SDS011;45901;47.600;9.890;2022-07-25T03:11:58;12.47;;;10.80;;
60030;SDS011;45901;47.600;9.890;2022-07-25T03:14:30;10.63;;;9.43;;
60030;SDS011;45901;47.600;9.890;2022-07-25T03:16:57;12.20;;;10.90;;
60030;SDS011;45901;47.600;9.890;2022-07-25T03:19:25;14.87;;;11.20;;
60030;SDS011;45901;47.600;9.890;2022-07-25T03:21:53;11.57;;;10.07;;
60030;SDS011;45901;47.600;9.890;2022-07-25T03:24:20;12.03;;;10.73;;
60030;SDS011;45901;47.600;9.890;2022-07-25T03:26:49;12.33;;;9.97;;
60030;SDS011;45901;47.600;9.890;2022-07-25T03:29:16;11.47;;;9.67;;
60030;SDS011;45901;47.600;9.890;2022-07-25T03:31:44;11.40;;;10.20;;
60030;SDS011;45901;47.600;9.890;2022-07-25T03:34:11;11.23;;;9.93;;
60030;SDS011;45901;47.600;9.890;2022-07-25T03:36:38;11.10;;;10.00;;
60030;SDS011;45901;47.600;9.890;2022-07-25T03:39:08;12.80;;;10.13;;
60030;SDS011;45901;47.600;9.890;2022-07-25T03:41:35;12.07;;;10.07;;
60030;SDS011;45901;47.600;9.890;2022-07-25T03:44:04;10.67;;;9.57;;
60030;SDS011;45901;47.600;9.890;2022-07-25T03:46:31;10.70;;;9.60;;
60030;SDS011;45901;47.600;9.890;2022-07-25T03:48:59;13.37;;;10.03;;
60030;SDS011;45901;47.600;9.890;2022-07-25T03:51:26;11.97;;;10.37;;
60030;SDS011;45901;47.600;9.890;2022-07-25T03:53:53;12.87;;;10.60;;
60030;SDS011;45901;47.600;9.890;2022-07-25T03:56:30;11.03;;;9.73;;
60030;SDS011;45901;47.600;9.890;2022-07-25T03:59:02;11.03;;;9.87;;
60030;SDS011;45901;47.600;9.890;2022-07-25T04:01:30;11.83;;;10.47;;
60030;SDS011;45901;47.600;9.890;2022-07-25T04:03:58;13.77;;;9.87;;
60030;SDS011;45901;47.600;9.890;2022-07-25T04:06:27;15.40;;;11.23;;
60030;SDS011;45901;47.600;9.890;2022-07-25T04:08:54;13.40;;;10.50;;
60030;SDS011;45901;47.600;9.890;2022-07-25T04:11:33;13.23;;;11.00;;
60030;SDS011;45901;47.600;9.890;2022-07-25T04:14:05;12.47;;;10.17;;
60030;SDS011;45901;47.600;9.890;2022-07-25T04:16:34;11.73;;;10.17;;
60030;SDS011;45901;47.600;9.890;2022-07-25T04:19:01;11.23;;;10.10;;
60030;SDS011;45901;47.600;9.890;2022-07-25T04:21:28;12.83;;;10.77;;
60030;SDS011;45901;47.600;9.890;2022-07-25T04:23:55;12.27;;;10.07;;
60030;SDS011;45901;47.600;9.890;2022-07-25T04:26:23;13.73;;;10.13;;
60030;SDS011;45901;47.600;9.890;2022-07-25T04:28:50;11.30;;;10.10;;
60030;SDS011;45901;47.600;9.890;2022-07-25T04:31:17;12.20;;;11.00;;
60030;SDS011;45901;47.600;9.890;2022-07-25T04:33:46;11.40;;;10.13;;
60030;SDS011;45901;47.600;9.890;2022-07-25T04:36:13;12.53;;;11.07;;
60030;SDS011;45901;47.600;9.890;2022-07-25T04:38:40;12.50;;;10.13;;
60030;SDS011;45901;47.600;9.890;2022-07-25T04:41:08;13.47;;;10.40;;
60030;SDS011;45901;47.600;9.890;2022-07-25T04:43:35;12.23;;;10.27;;
60030;SDS011;45901;47.600;9.890;2022-07-25T04:46:06;14.13;;;10.50;;
60030;SDS011;45901;47.600;9.890;2022-07-25T04:48:33;11.33;;;10.13;;
60030;SDS011;45901;47.600;9.890;2022-07-25T04:51:01;13.17;;;9.83;;
60030;SDS011;45901;47.600;9.890;2022-07-25T04:53:28;12.23;;;10.27;;
60030;SDS011;45901;47.600;9.890;2022-07-25T04:55:56;11.33;;;10.07;;
60030;SDS011;45901;47.600;9.890;2022-07-25T04:58:27;13.23;;;10.60;;
60030;SDS011;45901;47.600;9.890;2022-07-25T05:00:54;14.27;;;10.07;;
60030;SDS011;45901;47.600;9.890;2022-07-25T05:03:22;12.20;;;10.90;;
60030;SDS011;45901;47.600;9.890;2022-07-25T05:05:49;10.90;;;9.80;;
60030;SDS011;45901;47.600;9.890;2022-07-25T05:08:20;12.03;;;10.10;;
60030;SDS011;45901;47.600;9.890;2022-07-25T05:10:48;10.90;;;9.70;;
60030;SDS011;45901;47.600;9.890;2022-07-25T05:13:15;11.43;;;9.20;;
60030;SDS011;45901;47.600;9.890;2022-07-25T05:15:45;12.17;;;9.77;;
60030;SDS011;45901;47.600;9.890;2022-07-25T05:18:12;12.40;;;9.60;;
60030;SDS011;45901;47.600;9.890;2022-07-25T05:20:39;10.33;;;9.23;;
60030;SDS011;45901;47.600;9.890;2022-07-25T05:23:06;11.30;;;10.17;;
60030;SDS011;45901;47.600;9.890;2022-07-25T05:25:38;13.00;;;10.30;;
60030;SDS011;45901;47.600;9.890;2022-07-25T05:28:06;16.60;;;10.10;;
60030;SDS011;45901;47.600;9.890;2022-07-25T05:30:36;14.60;;;11.47;;
60030;SDS011;45901;47.600;9.890;2022-07-25T05:33:04;17.90;;;11.50;;
60030;SDS011;45901;47.600;9.890;2022-07-25T05:35:31;19.93;;;12.37;;
60030;SDS011;45901;47.600;9.890;2022-07-25T05:37:59;14.67;;;10.93;;
60030;SDS011;45901;47.600;9.890;2022-07-25T05:40:26;18.97;;;12.20;;
60030;SDS011;45901;47.600;9.890;2022-07-25T05:42:54;13.93;;;10.20;;
60030;SDS011;45901;47.600;9.890;2022-07-25T05:45:25;14.40;;;9.27;;
60030;SDS011;45901;47.600;9.890;2022-07-25T05:47:52;15.00;;;9.93;;
60030;SDS011;45901;47.600;9.890;2022-07-25T05:50:19;12.77;;;9.73;;
60030;SDS011;45901;47.600;9.890;2022-07-25T05:52:46;10.70;;;9.60;;
60030;SDS011;45901;47.600;9.890;2022-07-25T05:55:14;10.03;;;8.93;;
60030;SDS011;45901;47.600;9.890;2022-07-25T05:57:41;9.97;;;8.83;;
60030;SDS011;45901;47.600;9.890;2022-07-25T06:00:19;12.23;;;9.90;;
60030;SDS011;45901;47.600;9.890;2022-07-25T06:03:02;11.03;;;8.93;;
60030;SDS011;45901;47.600;9.890;2022-07-25T06:05:30;10.57;;;9.47;;
60030;SDS011;45901;47.600;9.890;2022-07-25T06:08:01;11.57;;;9.37;;
60030;SDS011;45901;47.600;9.890;2022-07-25T06:10:28;11.50;;;9.30;;
60030;SDS011;45901;47.600;9.890;2022-07-25T06:12:57;9.53;;;8.63;;
60030;SDS011;45901;47.600;9.890;2022-07-25T06:15:26;10.33;;;9.00;;
60030;SDS011;45901;47.600;9.890;2022-07-25T06:17:53;10.70;;;9.47;;
60030;SDS011;45901;47.600;9.890;2022-07-25T06:20:20;11.10;;;9.00;;
60030;SDS011;45901;47.600;9.890;2022-07-25T06:22:47;11.17;;;9.77;;
60030;SDS011;45901;47.600;9.890;2022-07-25T06:25:18;10.23;;;9.07;;
60030;SDS011;45901;47.600;9.890;2022-07-25T06:27:46;11.50;;;9.57;;
60030;SDS011;45901;47.600;9.890;2022-07-25T06:30:13;11.17;;;9.43;;
60030;SDS011;45901;47.600;9.890;2022-07-25T06:32:42;11.10;;;9.43;;
60030;SDS011;45901;47.600;9.890;2022-07-25T06:35:09;11.33;;;9.50;;
60030;SDS011;45901;47.600;9.890;2022-07-25T06:37:36;9.80;;;8.60;;
60030;SDS011;45901;47.600;9.890;2022-07-25T06:40:04;11.73;;;9.33;;
60030;SDS011;45901;47.600;9.890;2022-07-25T06:42:36;12.20;;;9.00;;
60030;SDS011;45901;47.600;9.890;2022-07-25T06:45:05;11.33;;;8.97;;
60030;SDS011;45901;47.600;9.890;2022-07-25T06:47:34;10.40;;;9.23;;
60030;SDS011;45901;47.600;9.890;2022-07-25T06:50:04;10.70;;;8.83;;
60030;SDS011;45901;47.600;9.890;2022-07-25T06:52:32;11.47;;;8.90;;
60030;SDS011;45901;47.600;9.890;2022-07-25T06:55:00;10.20;;;9.20;;
60030;SDS011;45901;47.600;9.890;2022-07-25T06:57:27;10.17;;;8.53;;
60030;SDS011;45901;47.600;9.890;2022-07-25T06:59:54;9.83;;;8.80;;
60030;SDS011;45901;47.600;9.890;2022-07-25T07:02:22;10.70;;;8.70;;
60030;SDS011;45901;47.600;9.890;2022-07-25T07:04:49;10.37;;;8.90;;
60030;SDS011;45901;47.600;9.890;2022-07-25T07:07:18;10.63;;;9.03;;
60030;SDS011;45901;47.600;9.890;2022-07-25T07:09:48;11.77;;;9.53;;
60030;SDS011;45901;47.600;9.890;2022-07-25T07:12:15;9.63;;;8.23;;
60030;SDS011;45901;47.600;9.890;2022-07-25T07:14:43;10.50;;;9.40;;
60030;SDS011;45901;47.600;9.890;2022-07-25T07:17:13;10.30;;;8.97;;
60030;SDS011;45901;47.600;9.890;2022-07-25T07:19:41;10.90;;;9.30;;
60030;SDS011;45901;47.600;9.890;2022-07-25T07:22:10;8.90;;;8.00;;
60030;SDS011;45901;47.600;9.890;2022-07-25T07:24:38;11.03;;;9.87;;
60030;SDS011;45901;47.600;9.890;2022-07-25T07:27:12;10.90;;;8.60;;
60030;SDS011;45901;47.600;9.890;2022-07-25T07:29:39;10.20;;;9.07;;
60030;SDS011;45901;47.600;9.890;2022-07-25T07:32:15;10.97;;;8.83;;
60030;SDS011;45901;47.600;9.890;2022-07-25T07:34:42;9.67;;;8.63;;
60030;SDS011;45901;47.600;9.890;2022-07-25T07:37:10;14.83;;;9.23;;
60030;SDS011;45901;47.600;9.890;2022-07-25T07:39:38;11.07;;;9.30;;
60030;SDS011;45901;47.600;9.890;2022-07-25T07:42:05;9.57;;;8.67;;
60030;SDS011;45901;47.600;9.890;2022-07-25T07:44:33;11.00;;;8.90;;
60030;SDS011;45901;47.600;9.890;2022-07-25T07:47:00;10.70;;;8.27;;
60030;SDS011;45901;47.600;9.890;2022-07-25T07:49:27;12.45;;;8.32;;
60030;SDS011;45901;47.600;9.890;2022-07-25T07:51:54;10.20;;;8.57;;
60030;SDS011;45901;47.600;9.890;2022-07-25T07:54:21;9.10;;;7.90;;
60030;SDS011;45901;47.600;9.890;2022-07-25T07:57:08;11.10;;;7.53;;
60030;SDS011;45901;47.600;9.890;2022-07-25T07:59:35;8.35;;;7.55;;
60030;SDS011;45901;47.600;9.890;2022-07-25T08:02:02;10.02;;;7.68;;
60030;SDS011;45901;47.600;9.890;2022-07-25T08:04:30;10.20;;;8.60;;
60030;SDS011;45901;47.600;9.890;2022-07-25T08:06:57;11.57;;;8.32;;
60030;SDS011;45901;47.600;9.890;2022-07-25T08:09:24;10.20;;;7.95;;
60030;SDS011;45901;47.600;9.890;2022-07-25T08:11:51;9.20;;;8.05;;
60030;SDS011;45901;47.600;9.890;2022-07-25T08:14:20;11.25;;;8.50;;
60030;SDS011;45901;47.600;9.890;2022-07-25T08:16:47;11.57;;;8.02;;
60030;SDS011;45901;47.600;9.890;2022-07-25T08:19:16;10.65;;;8.10;;
60030;SDS011;45901;47.600;9.890;2022-07-25T08:21:45;11.70;;;8.00;;
60030;SDS011;45901;47.600;9.890;2022-07-25T08:24:13;10.30;;;8.05;;
60030;SDS011;45901;47.600;9.890;2022-07-25T08:26:40;8.32;;;6.70;;
60030;SDS011;45901;47.600;9.890;2022-07-25T08:29:07;6.80;;;5.90;;
60030;SDS011;45901;47.600;9.890;2022-07-25T08:31:35;6.25;;;5.50;;
60030;SDS011;45901;47.600;9.890;2022-07-25T08:34:12;6.18;;;5.35;;
60030;SDS011;45901;47.600;9.890;2022-07-25T08:36:43;7.97;;;6.13;;
60030;SDS011;45901;47.600;9.890;2022-07-25T08:39:18;6.53;;;5.68;;
60030;SDS011;45901;47.600;9.890;2022-07-25T08:41:46;7.85;;;4.75;;
60030;SDS011;45901;47.600;9.890;2022-07-25T08:44:14;6.55;;;5.30;;
60030;SDS011;45901;47.600;9.890;2022-07-25T08:46:46;7.32;;;5.05;;
60030;SDS011;45901;47.600;9.890;2022-07-25T08:49:16;5.80;;;4.78;;
60030;SDS011;45901;47.600;9.890;2022-07-25T08:51:44;7.00;;;5.28;;
60030;SDS011;45901;47.600;9.890;2022-07-25T08:54:11;6.47;;;5.20;;
60030;SDS011;45901;47.600;9.890;2022-07-25T08:56:39;7.97;;;5.65;;
60030;SDS011;45901;47.600;9.890;2022-07-25T08:59:06;5.50;;;4.53;;
60030;SDS011;45901;47.600;9.890;2022-07-25T09:01:36;6.32;;;4.95;;
60030;SDS011;45901;47.600;9.890;2022-07-25T09:04:07;7.68;;;5.03;;
60030;SDS011;45901;47.600;9.890;2022-07-25T09:06:36;5.78;;;4.72;;
60030;SDS011;45901;47.600;9.890;2022-07-25T09:09:14;5.25;;;4.53;;
60030;SDS011;45901;47.600;9.890;2022-07-25T09:11:41;5.47;;;4.88;;
60030;SDS011;45901;47.600;9.890;2022-07-25T09:14:10;4.78;;;4.13;;
60030;SDS011;45901;47.600;9.890;2022-07-25T09:16:38;5.75;;;5.15;;
60030;SDS011;45901;47.600;9.890;2022-07-25T09:19:10;6.35;;;4.50;;
60030;SDS011;45901;47.600;9.890;2022-07-25T09:21:39;5.47;;;4.97;;
60030;SDS011;45901;47.600;9.890;2022-07-25T09:24:10;5.25;;;4.75;;
60030;SDS011;45901;47.600;9.890;2022-07-25T09:26:43;5.53;;;4.95;;
60030;SDS011;45901;47.600;9.890;2022-07-25T09:29:16;5.90;;;4.90;;
60030;SDS011;45901;47.600;9.890;2022-07-25T09:31:45;7.40;;;5.00;;
60030;SDS011;45901;47.600;9.890;2022-07-25T09:34:16;4.80;;;4.15;;
60030;SDS011;45901;47.600;9.890;2022-07-25T09:36:55;6.65;;;5.38;;
60030;SDS011;45901;47.600;9.890;2022-07-25T09:39:31;5.70;;;4.55;;
60030;SDS011;45901;47.600;9.890;2022-07-25T09:42:13;6.57;;;4.78;;
60030;SDS011;45901;47.600;9.890;2022-07-25T09:45:03;6.45;;;4.60;;
60030;SDS011;45901;47.600;9.890;2022-07-25T09:47:35;6.95;;;4.50;;
60030;SDS011;45901;47.600;9.890;2022-07-25T09:50:06;6.85;;;4.82;;
60030;SDS011;45901;47.600;9.890;2022-07-25T09:52:34;6.47;;;5.20;;
60030;SDS011;45901;47.600;9.890;2022-07-25T09:55:03;8.05;;;5.32;;
60030;SDS011;45901;47.600;9.890;2022-07-25T09:57:33;6.55;;;5.53;;
60030;SDS011;45901;47.600;9.890;2022-07-25T10:00:00;6.40;;;4.93;;
60030;SDS011;45901;47.600;9.890;2022-07-25T10:02:40;5.85;;;4.82;;
60030;SDS011;45901;47.600;9.890;2022-07-25T10:05:16;5.82;;;5.22;;
60030;SDS011;45901;47.600;9.890;2022-07-25T10:08:09;7.40;;;5.35;;
60030;SDS011;45901;47.600;9.890;2022-07-25T10:10:38;9.25;;;5.30;;
60030;SDS011;45901;47.600;9.890;2022-07-25T10:13:08;6.68;;;5.85;;
60030;SDS011;45901;47.600;9.890;2022-07-25T10:15:39;6.68;;;5.32;;
60030;SDS011;45901;47.600;9.890;2022-07-25T10:18:08;10.48;;;5.88;;
60030;SDS011;45901;47.600;9.890;2022-07-25T10:20:37;10.02;;;6.38;;
60030;SDS011;45901;47.600;9.890;2022-07-25T10:41:18;9.52;;;7.22;;
60030;SDS011;45901;47.600;9.890;2022-07-25T10:44:44;8.30;;;6.22;;
60030;SDS011;45901;47.600;9.890;2022-07-25T10:47:15;7.70;;;6.45;;
60030;SDS011;45901;47.600;9.890;2022-07-25T10:49:46;8.05;;;6.63;;
60030;SDS011;45901;47.600;9.890;2022-07-25T10:52:26;11.18;;;6.47;;
60030;SDS011;45901;47.600;9.890;2022-07-25T10:54:56;6.72;;;6.00;;
60030;SDS011;45901;47.600;9.890;2022-07-25T10:57:26;7.75;;;6.80;;
60030;SDS011;45901;47.600;9.890;2022-07-25T11:00:02;7.28;;;5.78;;
60030;SDS011;45901;47.600;9.890;2022-07-25T11:02:37;6.93;;;6.18;;
60030;SDS011;45901;47.600;9.890;2022-07-25T11:05:07;7.22;;;5.95;;
60030;SDS011;45901;47.600;9.890;2022-07-25T11:07:36;8.45;;;6.50;;
60030;SDS011;45901;47.600;9.890;2022-07-25T11:10:06;8.88;;;6.22;;
60030;SDS011;45901;47.600;9.890;2022-07-25T11:12:34;7.28;;;5.93;;
60030;SDS011;45901;47.600;9.890;2022-07-25T11:15:03;7.95;;;6.13;;
60030;SDS011;45901;47.600;9.890;2022-07-25T11:17:35;8.32;;;6.32;;
60030;SDS011;45901;47.600;9.890;2022-07-25T11:24:12;10.70;;;6.95;;
60030;SDS011;45901;47.600;9.890;2022-07-25T11:26:45;7.65;;;6.95;;
60030;SDS011;45901;47.600;9.890;2022-07-25T11:29:23;8.02;;;6.80;;
60030;SDS011;45901;47.600;9.890;2022-07-25T11:31:57;8.07;;;7.25;;
60030;SDS011;45901;47.600;9.890;2022-07-25T11:34:43;8.73;;;7.15;;
60030;SDS011;45901;47.600;9.890;2022-07-25T11:37:31;9.65;;;7.60;;
60030;SDS011;45901;47.600;9.890;2022-07-25T11:40:55;8.55;;;7.65;;
60030;SDS011;45901;47.600;9.890;2022-07-25T11:43:27;8.63;;;6.95;;
60030;SDS011;45901;47.600;9.890;2022-07-25T11:46:02;9.23;;;7.25;;
60030;SDS011;45901;47.600;9.890;2022-07-25T11:48:37;8.70;;;7.80;;
60030;SDS011;45901;47.600;9.890;2022-07-25T11:51:13;12.07;;;7.85;;
60030;SDS011;45901;47.600;9.890;2022-07-25T11:53:47;10.93;;;7.53;;
60030;SDS011;45901;47.600;9.890;2022-07-25T11:56:42;14.07;;;8.05;;
60030;SDS011;45901;47.600;9.890;2022-07-25T12:00:57;11.20;;;8.63;;
60030;SDS011;45901;47.600;9.890;2022-07-25T12:07:18;9.20;;;6.55;;
60030;SDS011;45901;47.600;9.890;2022-07-25T12:09:55;8.20;;;6.38;;
60030;SDS011;45901;47.600;9.890;2022-07-25T12:12:22;13.73;;;6.88;;
60030;SDS011;45901;47.600;9.890;2022-07-25T12:14:52;9.55;;;6.95;;
60030;SDS011;45901;47.600;9.890;2022-07-25T12:17:24;9.13;;;6.00;;
60030;SDS011;45901;47.600;9.890;2022-07-25T12:22:53;8.70;;;5.95;;
60030;SDS011;45901;47.600;9.890;2022-07-25T12:25:23;8.65;;;6.20;;
60030;SDS011;45901;47.600;9.890;2022-07-25T12:27:50;7.13;;;6.43;;
60030;SDS011;45901;47.600;9.890;2022-07-25T12:30:20;7.45;;;6.45;;
60030;SDS011;45901;47.600;9.890;2022-07-25T12:32:50;7.40;;;6.63;;
60030;SDS011;45901;47.600;9.890;2022-07-25T12:35:18;9.73;;;6.82;;
60030;SDS011;45901;47.600;9.890;2022-07-25T12:37:49;8.32;;;5.93;;
60030;SDS011;45901;47.600;9.890;2022-07-25T12:40:18;8.60;;;6.45;;
60030;SDS011;45901;47.600;9.890;2022-07-25T12:43:09;8.35;;;5.90;;
60030;SDS011;45901;47.600;9.890;2022-07-25T12:45:42;6.80;;;6.20;;
60030;SDS011;45901;47.600;9.890;2022-07-25T12:48:44;8.30;;;6.72;;
60030;SDS011;45901;47.600;9.890;2022-07-25T12:51:26;7.20;;;6.00;;
60030;SDS011;45901;47.600;9.890;2022-07-25T12:54:05;11.68;;;6.13;;
60030;SDS011;45901;47.600;9.890;2022-07-25T12:57:11;8.52;;;6.53;;
60030;SDS011;45901;47.600;9.890;2022-07-25T13:00:39;10.65;;;6.60;;
60030;SDS011;45901;47.600;9.890;2022-07-25T13:03:38;9.27;;;6.28;;
60030;SDS011;45901;47.600;9.890;2022-07-25T13:06:10;7.30;;;6.05;;
60030;SDS011;45901;47.600;9.890;2022-07-25T13:09:16;7.07;;;5.28;;
60030;SDS011;45901;47.600;9.890;2022-07-25T13:11:43;6.82;;;6.13;;
60030;SDS011;45901;47.600;9.890;2022-07-25T13:14:11;9.73;;;6.45;;
60030;SDS011;45901;47.600;9.890;2022-07-25T13:16:40;10.77;;;6.35;;
60030;SDS011;45901;47.600;9.890;2022-07-25T13:19:09;9.63;;;6.07;;
60030;SDS011;45901;47.600;9.890;2022-07-25T13:38:29;6.97;;;5.53;;
60030;SDS011;45901;47.600;9.890;2022-07-25T13:41:02;7.68;;;5.60;;
60030;SDS011;45901;47.600;9.890;2022-07-25T13:43:57;6.75;;;4.47;;
60030;SDS011;45901;47.600;9.890;2022-07-25T13:46:24;6.13;;;4.43;;
60030;SDS011;45901;47.600;9.890;2022-07-25T13:48:51;6.90;;;4.70;;
60030;SDS011;45901;47.600;9.890;2022-07-25T13:51:20;5.38;;;4.60;;
60030;SDS011;45901;47.600;9.890;2022-07-25T13:53:49;6.35;;;4.93;;
60030;SDS011;45901;47.600;9.890;2022-07-25T13:56:16;6.20;;;4.88;;
60030;SDS011;45901;47.600;9.890;2022-07-25T13:58:44;6.40;;;4.72;;
60030;SDS011;45901;47.600;9.890;2022-07-25T14:01:25;8.25;;;4.90;;
60030;SDS011;45901;47.600;9.890;2022-07-25T14:03:53;6.38;;;4.72;;
60030;SDS011;45901;47.600;9.890;2022-07-25T14:06:30;7.00;;;4.43;;
60030;SDS011;45901;47.600;9.890;2022-07-25T14:08:58;6.75;;;4.63;;
60030;SDS011;45901;47.600;9.890;2022-07-25T14:11:37;5.57;;;4.60;;
60030;SDS011;45901;47.600;9.890;2022-07-25T14:14:04;5.35;;;4.50;;
60030;SDS011;45901;47.600;9.890;2022-07-25T14:16:31;6.30;;;4.70;;
60030;SDS011;45901;47.600;9.890;2022-07-25T14:18:59;5.03;;;4.38;;
60030;SDS011;45901;47.600;9.890;2022-07-25T14:21:27;8.30;;;4.75;;
60030;SDS011;45901;47.600;9.890;2022-07-25T14:24:04;6.90;;;4.30;;
60030;SDS011;45901;47.600;9.890;2022-07-25T14:26:33;5.82;;;4.60;;
60030;SDS011;45901;47.600;9.890;2022-07-25T14:29:05;6.93;;;4.50;;
60030;SDS011;45901;47.600;9.890;2022-07-25T14:31:40;4.93;;;4.13;;
60030;SDS011;45901;47.600;9.890;2022-07-25T14:34:07;4.80;;;4.22;;
60030;SDS011;45901;47.600;9.890;2022-07-25T14:47:49;5.93;;;4.40;;
60030;SDS011;45901;47.600;9.890;2022-07-25T14:50:16;5.82;;;4.20;;
60030;SDS011;45901;47.600;9.890;2022-07-25T14:52:44;5.05;;;3.63;;
60030;SDS011;45901;47.600;9.890;2022-07-25T14:55:11;5.47;;;4.47;;
60030;SDS011;45901;47.600;9.890;2022-07-25T14:57:39;4.75;;;4.25;;
60030;SDS011;45901;47.600;9.890;2022-07-25T15:00:07;7.72;;;4.07;;
60030;SDS011;45901;47.600;9.890;2022-07-25T15:02:37;5.13;;;3.83;;
60030;SDS011;45901;47.600;9.890;2022-07-25T15:05:05;4.38;;;3.97;;
60030;SDS011;45901;47.600;9.890;2022-07-25T15:07:33;5.00;;;4.20;;
60030;SDS011;45901;47.600;9.890;2022-07-25T15:10:02;4.82;;;4.00;;
60030;SDS011;45901;47.600;9.890;2022-07-25T15:12:40;4.30;;;3.90;;
60030;SDS011;45901;47.600;9.890;2022-07-25T15:15:09;4.43;;;4.03;;
60030;SDS011;45901;47.600;9.890;2022-07-25T15:17:38;5.47;;;4.45;;
60030;SDS011;45901;47.600;9.890;2022-07-25T15:20:05;5.03;;;4.47;;
60030;SDS011;45901;47.600;9.890;2022-07-25T15:22:34;4.68;;;4.00;;
60030;SDS011;45901;47.600;9.890;2022-07-25T15:25:01;5.82;;;4.20;;
60030;SDS011;45901;47.600;9.890;2022-07-25T15:27:29;4.88;;;4.07;;
60030;SDS011;45901;47.600;9.890;2022-07-25T15:29:57;7.13;;;4.10;;
60030;SDS011;45901;47.600;9.890;2022-07-25T15:32:25;9.30;;;4.50;;
60030;SDS011;45901;47.600;9.890;2022-07-25T15:34:53;7.45;;;4.47;;
60030;SDS011;45901;47.600;9.890;2022-07-25T15:37:20;5.20;;;4.70;;
60030;SDS011;45901;47.600;9.890;2022-07-25T15:39:48;6.72;;;4.15;;
60030;SDS011;45901;47.600;9.890;2022-07-25T15:42:15;7.43;;;4.75;;
60030;SDS011;45901;47.600;9.890;2022-07-25T15:44:42;5.68;;;5.07;;
60030;SDS011;45901;47.600;9.890;2022-07-25T15:47:09;6.03;;;5.03;;
60030;SDS011;45901;47.600;9.890;2022-07-25T15:49:37;7.53;;;5.20;;
60030;SDS011;45901;47.600;9.890;2022-07-25T15:52:05;7.00;;;4.68;;
60030;SDS011;45901;47.600;9.890;2022-07-25T15:54:33;5.13;;;4.63;;
60030;SDS011;45901;47.600;9.890;2022-07-25T15:57:01;10.88;;;5.45;;
60030;SDS011;45901;47.600;9.890;2022-07-25T15:59:28;6.18;;;5.55;;